Time;durP1;ratioP1;P1;durP2;ratioP2;P2;SDS_P1;SDS_P2;PMS_P1;PMS_P2;Temp;Humidity;BMP_temperature;BMP_pressure;BME280_temperature;BME280_humidity;BME280_pressure;Samples;Min_cycle;Max_cycle;Signal;HPM_P1;HPM_P2
2022/12/18 00:01:39;;;;;;;24.92;14.35;;;;;;;;;;5073796;28;20039;-70
2022/12/18 00:04:06;;;;;;;25.67;13.95;;;;;;;;;;5073916;28;20170;-70
2022/12/18 00:06:32;;;;;;;24.05;14.02;;;;;;;;;;5074069;28;20031;-70
2022/12/18 00:09:00;;;;;;;23.17;13.75;;;;;;;;;;5072532;28;20035;-70
2022/12/18 00:11:27;;;;;;;26.83;15.13;;;;;;;;;;5073764;28;20558;-70
2022/12/18 00:13:54;;;;;;;25.40;14.18;;;;;;;;;;5073208;28;20075;-70
2022/12/18 00:16:20;;;;;;;24.48;13.88;;;;;;;;;;5073765;28;20434;-70
2022/12/18 00:18:48;;;;;;;22.95;13.88;;;;;;;;;;5073301;28;20486;-70
2022/12/18 00:21:16;;;;;;;25.27;14.38;;;;;;;;;;5073439;28;20086;-70
2022/12/18 00:23:42;;;;;;;26.15;14.45;;;;;;;;;;5072418;28;20037;-70
2022/12/18 00:26:10;;;;;;;28.13;15.35;;;;;;;;;;5075103;28;20039;-70
2022/12/18 00:28:36;;;;;;;27.08;15.05;;;;;;;;;;5077961;28;20038;-70
2022/12/18 00:31:02;;;;;;;23.13;13.70;;;;;;;;;;5077737;28;20111;-70
2022/12/18 00:33:27;;;;;;;23.85;13.02;;;;;;;;;;5077399;28;20380;-70
2022/12/18 00:35:53;;;;;;;21.98;12.52;;;;;;;;;;5059699;28;20024;-70
2022/12/18 00:38:18;;;;;;;22.70;13.15;;;;;;;;;;5076798;28;20024;-70
2022/12/18 00:40:44;;;;;;;26.95;13.90;;;;;;;;;;5077616;28;20170;-69
2022/12/18 00:43:11;;;;;;;21.67;13.00;;;;;;;;;;5076188;28;20029;-69
2022/12/18 00:45:36;;;;;;;22.77;13.38;;;;;;;;;;5076641;28;20020;-70
2022/12/18 00:48:02;;;;;;;22.20;13.55;;;;;;;;;;5077375;28;20059;-70
2022/12/18 00:50:27;;;;;;;22.77;13.50;;;;;;;;;;5076457;28;20056;-70
2022/12/18 00:52:53;;;;;;;19.60;12.27;;;;;;;;;;5077238;28;20028;-69
2022/12/18 00:55:18;;;;;;;21.27;13.27;;;;;;;;;;5075968;28;20031;-69
2022/12/18 00:57:45;;;;;;;20.85;13.85;;;;;;;;;;5075696;28;20488;-70
2022/12/18 01:00:12;;;;;;;25.40;14.60;;;;;;;;;;5076044;28;20016;-71
2022/12/18 01:02:38;;;;;;;27.60;14.30;;;;;;;;;;5077024;28;20384;-71
2022/12/18 01:05:05;;;;;;;25.45;14.70;;;;;;;;;;5077038;28;20029;-70
2022/12/18 01:07:32;;;;;;;26.75;15.68;;;;;;;;;;5076163;28;20554;-70
2022/12/18 01:09:57;;;;;;;23.15;13.05;;;;;;;;;;5077223;28;20013;-70
2022/12/18 01:12:22;;;;;;;21.55;12.63;;;;;;;;;;5077238;28;20051;-72
2022/12/18 01:14:49;;;;;;;21.75;13.65;;;;;;;;;;5076061;28;20407;-71
2022/12/18 01:17:15;;;;;;;26.85;14.93;;;;;;;;;;5075515;28;20101;-71
2022/12/18 01:19:41;;;;;;;28.67;15.40;;;;;;;;;;5076619;28;20495;-71
2022/12/18 01:22:09;;;;;;;27.27;15.10;;;;;;;;;;5075428;28;20039;-71
2022/12/18 01:24:34;;;;;;;25.35;15.18;;;;;;;;;;5075587;28;20028;-71
2022/12/18 01:27:00;;;;;;;26.98;15.63;;;;;;;;;;5075890;28;20119;-71
2022/12/18 01:29:25;;;;;;;25.25;14.55;;;;;;;;;;5076605;28;20056;-71
2022/12/18 01:31:51;;;;;;;25.25;14.90;;;;;;;;;;5076429;28;20487;-70
2022/12/18 01:34:17;;;;;;;27.83;15.43;;;;;;;;;;5076329;28;20027;-70
2022/12/18 01:36:43;;;;;;;27.60;15.35;;;;;;;;;;5076193;28;20109;-70
2022/12/18 01:39:14;;;;;;;25.58;15.43;;;;;;;;;;5074768;28;20099;-70
2022/12/18 01:44:43;;;;;;;24.40;14.55;;;;;;;;;;5075100;28;20060;-71
2022/12/18 01:47:13;;;;;;;27.75;15.35;;;;;;;;;;5075451;28;20024;-70
2022/12/18 01:49:39;;;;;;;30.63;15.80;;;;;;;;;;5076259;28;20440;-70
2022/12/18 01:52:05;;;;;;;32.83;16.92;;;;;;;;;;5076585;28;20024;-70
2022/12/18 01:54:30;;;;;;;34.13;17.63;;;;;;;;;;5074872;28;20043;-69
2022/12/18 01:56:56;;;;;;;25.15;14.57;;;;;;;;;;5063014;28;20472;-69
2022/12/18 01:59:22;;;;;;;25.63;14.93;;;;;;;;;;5054794;28;20399;-69
2022/12/18 02:01:47;;;;;;;25.33;14.45;;;;;;;;;;5054512;28;20528;-70
2022/12/18 02:04:23;;;;;;;24.33;14.15;;;;;;;;;;5054731;28;20380;-70
2022/12/18 02:07:15;;;;;;;21.13;13.65;;;;;;;;;;5054420;28;20032;-71
2022/12/18 02:09:53;;;;;;;26.08;14.55;;;;;;;;;;5039416;28;20083;-71
2022/12/18 02:12:23;;;;;;;20.67;13.85;;;;;;;;;;5055842;28;20381;-71
2022/12/18 02:14:54;;;;;;;23.33;14.45;;;;;;;;;;5056349;28;20061;-71
2022/12/18 02:17:21;;;;;;;22.75;13.77;;;;;;;;;;5055826;28;20350;-71
2022/12/18 02:20:08;;;;;;;25.55;15.52;;;;;;;;;;5055255;28;20052;-71
2022/12/18 02:22:37;;;;;;;25.60;15.85;;;;;;;;;;5034233;28;20048;-71
2022/12/18 02:25:41;;;;;;;24.83;14.77;;;;;;;;;;5055912;28;20083;-71
2022/12/18 02:28:11;;;;;;;25.73;15.73;;;;;;;;;;5017105;28;20029;-71
2022/12/18 02:30:37;;;;;;;25.08;16.38;;;;;;;;;;5017087;28;20029;-70
2022/12/18 02:33:04;;;;;;;25.67;16.05;;;;;;;;;;5044216;28;20476;-70
2022/12/18 02:35:30;;;;;;;29.08;16.23;;;;;;;;;;5053890;28;20025;-70
2022/12/18 02:37:58;;;;;;;26.13;15.75;;;;;;;;;;5054078;28;20027;-70
2022/12/18 02:40:26;;;;;;;27.55;16.08;;;;;;;;;;5054100;28;20104;-71
2022/12/18 02:42:53;;;;;;;27.38;16.42;;;;;;;;;;5054059;28;20036;-71
2022/12/18 02:45:19;;;;;;;29.58;16.50;;;;;;;;;;5053740;28;20112;-70
2022/12/18 02:47:47;;;;;;;29.02;17.10;;;;;;;;;;5053716;28;20029;-70
2022/12/18 02:50:22;;;;;;;27.52;17.08;;;;;;;;;;5052178;28;20499;-70
2022/12/18 02:53:13;;;;;;;29.38;16.67;;;;;;;;;;5054407;28;20061;-70
2022/12/18 02:55:57;;;;;;;28.42;16.70;;;;;;;;;;5054859;28;20021;-70
2022/12/18 02:58:37;;;;;;;25.65;15.18;;;;;;;;;;5053368;28;20029;-70
2022/12/18 03:01:17;;;;;;;25.05;15.43;;;;;;;;;;5054189;28;20126;-70
2022/12/18 03:03:49;;;;;;;25.50;14.75;;;;;;;;;;5053313;28;20068;-70
2022/12/18 03:06:27;;;;;;;26.00;14.52;;;;;;;;;;5053252;28;20025;-70
2022/12/18 03:08:57;;;;;;;27.48;15.02;;;;;;;;;;5053939;28;20411;-70
2022/12/18 03:14:12;;;;;;;23.15;15.18;;;;;;;;;;5053655;28;20040;-70
2022/12/18 03:16:38;;;;;;;28.48;15.60;;;;;;;;;;5053049;28;20013;-70
2022/12/18 03:19:08;;;;;;;33.53;16.83;;;;;;;;;;5053041;28;20540;-71
2022/12/18 03:21:38;;;;;;;31.17;17.33;;;;;;;;;;5054556;28;20119;-70
2022/12/18 03:24:06;;;;;;;34.08;17.73;;;;;;;;;;5053259;28;20036;-70
2022/12/18 03:26:35;;;;;;;31.85;17.65;;;;;;;;;;5054238;28;20033;-70
2022/12/18 03:29:07;;;;;;;34.22;17.02;;;;;;;;;;5053182;28;20169;-70
2022/12/18 03:31:39;;;;;;;33.30;17.27;;;;;;;;;;5053151;28;20499;-70
2022/12/18 03:34:14;;;;;;;33.85;18.75;;;;;;;;;;5054159;28;20044;-70
2022/12/18 03:36:44;;;;;;;33.60;18.73;;;;;;;;;;5052895;28;20036;-70
2022/12/18 03:39:10;;;;;;;34.42;18.33;;;;;;;;;;5052652;28;20024;-70
2022/12/18 03:41:56;;;;;;;38.17;19.00;;;;;;;;;;5052996;28;20039;-70
2022/12/18 03:44:42;;;;;;;38.15;19.45;;;;;;;;;;5052847;28;20100;-70
2022/12/18 03:47:13;;;;;;;36.22;19.00;;;;;;;;;;5054283;28;20021;-70
2022/12/18 03:49:40;;;;;;;;;;;;;;;;;;5054920;28;20032;-70
2022/12/18 03:52:10;;;;;;;35.72;19.70;;;;;;;;;;5052602;28;19904;-70
2022/12/18 03:54:39;;;;;;;36.00;19.45;;;;;;;;;;5036363;28;20410;-70
2022/12/18 03:57:14;;;;;;;41.58;19.80;;;;;;;;;;5036276;28;20017;-70
2022/12/18 03:59:41;;;;;;;42.78;20.55;;;;;;;;;;5052853;28;20029;-70
2022/12/18 04:02:08;;;;;;;39.05;20.10;;;;;;;;;;5052040;28;20066;-70
2022/12/18 04:04:35;;;;;;;38.03;19.58;;;;;;;;;;5052174;28;20033;-70
2022/12/18 04:07:03;;;;;;;36.83;19.08;;;;;;;;;;5052882;28;20549;-70
2022/12/18 04:09:30;;;;;;;37.45;20.27;;;;;;;;;;5052323;28;20033;-71
2022/12/18 04:11:56;;;;;;;38.67;20.65;;;;;;;;;;5052121;28;20025;-71
2022/12/18 04:14:22;;;;;;;37.50;20.25;;;;;;;;;;5053950;28;20515;-71
2022/12/18 04:16:52;;;;;;;41.72;20.65;;;;;;;;;;5052911;28;20021;-71
2022/12/18 04:19:22;;;;;;;36.87;19.30;;;;;;;;;;5050193;28;20155;-71
2022/12/18 04:21:51;;;;;;;35.03;19.92;;;;;;;;;;5052415;28;20061;-71
2022/12/18 04:24:17;;;;;;;36.05;20.75;;;;;;;;;;5052442;28;20025;-71
2022/12/18 04:26:52;;;;;;;40.25;21.27;;;;;;;;;;5052610;28;20025;-71
2022/12/18 04:29:24;;;;;;;36.67;20.45;;;;;;;;;;5036770;28;20425;-71
2022/12/18 04:31:49;;;;;;;37.65;20.48;;;;;;;;;;5051538;28;20115;-72
2022/12/18 04:34:15;;;;;;;40.85;21.55;;;;;;;;;;5052300;28;20013;-73
2022/12/18 04:36:47;;;;;;;42.53;21.33;;;;;;;;;;5051959;28;20025;-72
2022/12/18 04:39:13;;;;;;;38.60;20.77;;;;;;;;;;5051982;28;20488;-72
2022/12/18 04:41:41;;;;;;;38.42;21.40;;;;;;;;;;5052266;28;20045;-72
2022/12/18 04:44:07;;;;;;;44.28;22.08;;;;;;;;;;5051949;28;20052;-73
2022/12/18 04:46:33;;;;;;;36.92;21.10;;;;;;;;;;5053615;28;20055;-73
2022/12/18 04:48:59;;;;;;;38.47;20.35;;;;;;;;;;5053178;28;20385;-72
2022/12/18 04:51:24;;;;;;;39.22;21.20;;;;;;;;;;5053495;28;20028;-72
2022/12/18 04:53:51;;;;;;;38.55;20.13;;;;;;;;;;5053529;28;20029;-72
2022/12/18 04:56:16;;;;;;;40.90;21.75;;;;;;;;;;5053024;28;20029;-72
2022/12/18 04:58:43;;;;;;;41.63;20.48;;;;;;;;;;5053022;28;20404;-72
2022/12/18 05:01:09;;;;;;;40.55;21.20;;;;;;;;;;5053317;28;20508;-73
2022/12/18 05:03:36;;;;;;;35.17;19.60;;;;;;;;;;5053265;28;20047;-73
2022/12/18 05:06:02;;;;;;;40.70;21.90;;;;;;;;;;5053677;28;20368;-73
2022/12/18 05:08:31;;;;;;;37.92;20.38;;;;;;;;;;5052201;28;20137;-73
2022/12/18 05:11:07;;;;;;;38.50;21.23;;;;;;;;;;5051691;28;20021;-72
2022/12/18 05:13:33;;;;;;;40.40;21.63;;;;;;;;;;5055196;28;20457;-72
2022/12/18 05:15:58;;;;;;;39.35;20.63;;;;;;;;;;5055707;28;20032;-72
2022/12/18 05:18:26;;;;;;;39.92;21.45;;;;;;;;;;5056642;28;20056;-73
2022/12/18 05:20:54;;;;;;;41.03;21.38;;;;;;;;;;5056492;28;20036;-72
2022/12/18 05:23:21;;;;;;;36.80;20.88;;;;;;;;;;5055653;28;20399;-72
2022/12/18 05:25:53;;;;;;;41.67;21.27;;;;;;;;;;5057003;28;20104;-72
2022/12/18 05:28:19;;;;;;;38.03;21.08;;;;;;;;;;5057115;28;20052;-75
2022/12/18 05:30:51;;;;;;;41.28;20.83;;;;;;;;;;5056703;28;20398;-72
2022/12/18 05:33:20;;;;;;;39.50;21.42;;;;;;;;;;5055536;28;20069;-74
2022/12/18 05:35:53;;;;;;;39.78;21.13;;;;;;;;;;5055031;28;20024;-72
2022/12/18 05:38:19;;;;;;;34.58;21.15;;;;;;;;;;5056133;28;20029;-72
2022/12/18 05:40:44;;;;;;;39.38;21.92;;;;;;;;;;5055420;28;20036;-72
2022/12/18 05:43:12;;;;;;;39.47;21.08;;;;;;;;;;5056443;28;20116;-72
2022/12/18 05:45:38;;;;;;;42.15;21.35;;;;;;;;;;5056389;28;20112;-72
2022/12/18 05:48:05;;;;;;;38.80;22.30;;;;;;;;;;5056459;28;20425;-71
2022/12/18 05:50:30;;;;;;;38.67;21.13;;;;;;;;;;5056621;28;20099;-71
2022/12/18 05:53:00;;;;;;;40.28;21.63;;;;;;;;;;5055603;28;20025;-72
2022/12/18 05:55:26;;;;;;;39.65;21.58;;;;;;;;;;5056275;28;20089;-71
2022/12/18 05:57:52;;;;;;;41.25;21.33;;;;;;;;;;5054990;28;20032;-71
2022/12/18 06:00:17;;;;;;;35.30;21.65;;;;;;;;;;5055856;28;20400;-71
2022/12/18 06:02:46;;;;;;;38.75;22.08;;;;;;;;;;5056072;28;20063;-71
2022/12/18 06:05:11;;;;;;;41.15;22.45;;;;;;;;;;5056040;28;20021;-71
2022/12/18 06:07:37;;;;;;;38.63;21.17;;;;;;;;;;5055981;28;20033;-71
2022/12/18 06:10:02;;;;;;;37.35;21.50;;;;;;;;;;5055985;28;20100;-71
2022/12/18 06:12:28;;;;;;;40.47;21.27;;;;;;;;;;5056019;28;20037;-71
2022/12/18 06:14:54;;;;;;;39.80;21.35;;;;;;;;;;5055974;28;20078;-71
2022/12/18 06:17:20;;;;;;;38.67;20.58;;;;;;;;;;5054670;28;20031;-71
2022/12/18 06:19:45;;;;;;;38.67;21.00;;;;;;;;;;5054016;28;20048;-71
2022/12/18 06:22:11;;;;;;;40.70;21.27;;;;;;;;;;5054522;28;20048;-71
2022/12/18 06:24:37;;;;;;;42.63;22.10;;;;;;;;;;5055743;28;20029;-71
2022/12/18 06:27:03;;;;;;;39.03;21.90;;;;;;;;;;5055596;28;20040;-71
2022/12/18 06:29:28;;;;;;;40.70;20.58;;;;;;;;;;5055855;28;20476;-71
2022/12/18 06:31:55;;;;;;;41.60;22.30;;;;;;;;;;5055215;28;20029;-73
2022/12/18 06:34:20;;;;;;;47.35;23.83;;;;;;;;;;5055669;28;20013;-72
2022/12/18 06:36:46;;;;;;;44.42;23.52;;;;;;;;;;5055602;28;20036;-72
2022/12/18 06:39:13;;;;;;;46.47;23.15;;;;;;;;;;5052747;28;20033;-72
2022/12/18 06:41:41;;;;;;;43.95;22.77;;;;;;;;;;5055912;28;20029;-72
2022/12/18 06:44:06;;;;;;;42.38;22.55;;;;;;;;;;5055370;28;20021;-71
2022/12/18 06:46:33;;;;;;;41.25;21.33;;;;;;;;;;5055243;28;20176;-72
2022/12/18 06:48:58;;;;;;;38.80;21.45;;;;;;;;;;5055057;28;20029;-70
2022/12/18 06:51:25;;;;;;;37.08;20.13;;;;;;;;;;5053532;28;20473;-70
2022/12/18 06:53:51;;;;;;;40.38;21.10;;;;;;;;;;5054762;28;20021;-70
2022/12/18 06:56:16;;;;;;;36.67;18.92;;;;;;;;;;5055146;28;20369;-70
2022/12/18 06:58:42;;;;;;;38.97;20.38;;;;;;;;;;5054676;28;20063;-70
2022/12/18 07:01:09;;;;;;;36.28;16.70;;;;;;;;;;5054984;28;20036;-69
2022/12/18 07:03:34;;;;;;;41.85;20.83;;;;;;;;;;5054908;28;20472;-70
2022/12/18 07:06:00;;;;;;;38.05;20.10;;;;;;;;;;5054827;28;20028;-70
2022/12/18 07:08:25;;;;;;;37.20;20.05;;;;;;;;;;5054499;28;20012;-70
2022/12/18 07:10:52;;;;;;;41.20;20.88;;;;;;;;;;5054433;28;20370;-70
2022/12/18 07:13:18;;;;;;;40.38;21.02;;;;;;;;;;5053878;28;20468;-69
2022/12/18 07:15:43;;;;;;;42.08;21.50;;;;;;;;;;5053176;28;20041;-70
2022/12/18 07:18:09;;;;;;;40.38;21.23;;;;;;;;;;5052892;28;20021;-70
2022/12/18 07:20:34;;;;;;;37.75;20.23;;;;;;;;;;5052970;28;20088;-69
2022/12/18 07:23:02;;;;;;;42.75;21.15;;;;;;;;;;5053033;28;20027;-70
2022/12/18 07:25:28;;;;;;;38.63;20.58;;;;;;;;;;5054157;28;20061;-70
2022/12/18 07:27:53;;;;;;;39.20;20.25;;;;;;;;;;5053663;28;20056;-70
2022/12/18 07:30:20;;;;;;;38.25;21.73;;;;;;;;;;5052591;28;20033;-70
2022/12/18 07:32:46;;;;;;;40.42;22.20;;;;;;;;;;5053714;28;20032;-70
2022/12/18 07:35:12;;;;;;;41.42;22.08;;;;;;;;;;5053439;28;20120;-70
2022/12/18 07:37:37;;;;;;;44.15;22.25;;;;;;;;;;5053660;28;20013;-70
2022/12/18 07:40:02;;;;;;;44.35;22.33;;;;;;;;;;5052468;28;20120;-70
2022/12/18 07:42:31;;;;;;;44.92;23.13;;;;;;;;;;5053854;28;20059;-71
2022/12/18 07:44:57;;;;;;;45.22;24.80;;;;;;;;;;5052569;28;20035;-70
2022/12/18 07:47:22;;;;;;;42.78;23.10;;;;;;;;;;5052896;28;20025;-71
2022/12/18 07:49:49;;;;;;;49.10;26.77;;;;;;;;;;5052575;28;20021;-73
2022/12/18 07:52:14;;;;;;;49.97;26.48;;;;;;;;;;5051090;28;20028;-72
2022/12/18 07:54:40;;;;;;;45.65;26.13;;;;;;;;;;5053333;28;20031;-72
2022/12/18 07:57:06;;;;;;;43.47;23.70;;;;;;;;;;5053051;28;20020;-71
2022/12/18 07:59:32;;;;;;;48.40;24.90;;;;;;;;;;5053488;28;20406;-71
2022/12/18 08:01:58;;;;;;;47.95;25.40;;;;;;;;;;5052031;28;20025;-72
2022/12/18 08:04:24;;;;;;;47.38;25.67;;;;;;;;;;5052603;28;20091;-72
2022/12/18 08:06:50;;;;;;;41.47;24.05;;;;;;;;;;5053367;28;20028;-72
2022/12/18 08:09:16;;;;;;;51.50;25.20;;;;;;;;;;5052918;28;20025;-71
2022/12/18 08:11:41;;;;;;;44.03;24.67;;;;;;;;;;5051743;28;20020;-71
2022/12/18 08:14:07;;;;;;;45.78;24.27;;;;;;;;;;5050463;28;20059;-68
2022/12/18 08:16:33;;;;;;;43.47;25.08;;;;;;;;;;5050724;28;20057;-68
2022/12/18 08:19:01;;;;;;;48.95;26.88;;;;;;;;;;5051679;28;20037;-69
2022/12/18 08:21:28;;;;;;;51.67;27.67;;;;;;;;;;5052034;28;20055;-68
2022/12/18 08:23:55;;;;;;;51.08;28.13;;;;;;;;;;5052076;28;20029;-68
2022/12/18 08:26:21;;;;;;;77.95;41.95;;;;;;;;;;5049008;28;20673;-68
2022/12/18 08:28:49;;;;;;;95.20;53.40;;;;;;;;;;5050333;28;20212;-68
2022/12/18 08:31:15;;;;;;;74.60;39.08;;;;;;;;;;5050030;28;20056;-68
2022/12/18 08:33:41;;;;;;;68.82;34.75;;;;;;;;;;5050068;28;20538;-68
2022/12/18 08:36:08;;;;;;;72.15;35.33;;;;;;;;;;5050806;28;20090;-68
2022/12/18 08:38:33;;;;;;;54.97;29.20;;;;;;;;;;5051574;28;20083;-68
2022/12/18 08:41:00;;;;;;;56.90;29.63;;;;;;;;;;5051789;28;20032;-68
2022/12/18 08:46:09;;;;;;;55.67;30.70;;;;;;;;;;5052076;28;20476;-68
2022/12/18 08:48:35;;;;;;;45.92;24.88;;;;;;;;;;5055712;28;20029;-68
2022/12/18 08:51:01;;;;;;;48.53;25.75;;;;;;;;;;5055499;28;20041;-68
2022/12/18 08:53:26;;;;;;;47.50;25.95;;;;;;;;;;5056165;28;20250;-68
2022/12/18 08:55:52;;;;;;;50.03;26.52;;;;;;;;;;5055991;28;20350;-68
2022/12/18 08:58:18;;;;;;;47.03;25.08;;;;;;;;;;5056102;28;20055;-68
2022/12/18 09:00:43;;;;;;;45.85;24.30;;;;;;;;;;5055807;28;20044;-68
2022/12/18 09:03:13;;;;;;;40.70;22.48;;;;;;;;;;5053939;28;20017;-68
2022/12/18 09:05:38;;;;;;;41.55;24.70;;;;;;;;;;5054603;28;20067;-68
2022/12/18 09:08:04;;;;;;;58.08;29.92;;;;;;;;;;5056546;28;20033;-68
2022/12/18 09:10:29;;;;;;;59.50;31.42;;;;;;;;;;5056015;28;20118;-68
2022/12/18 09:12:56;;;;;;;79.80;41.58;;;;;;;;;;5056301;28;20025;-68
2022/12/18 09:15:22;;;;;;;97.10;47.08;;;;;;;;;;5056012;28;20025;-68
2022/12/18 09:17:48;;;;;;;99.50;44.80;;;;;;;;;;5055891;28;20090;-68
2022/12/18 09:20:15;;;;;;;91.53;49.97;;;;;;;;;;5056117;28;20049;-68
2022/12/18 09:22:40;;;;;;;86.18;46.35;;;;;;;;;;5054266;28;20040;-68
2022/12/18 09:25:07;;;;;;;70.43;38.92;;;;;;;;;;5055443;28;20025;-68
2022/12/18 09:27:33;;;;;;;69.97;38.38;;;;;;;;;;5054078;28;20061;-68
2022/12/18 09:29:59;;;;;;;61.42;33.92;;;;;;;;;;5054652;28;20087;-68
2022/12/18 09:32:25;;;;;;;62.50;33.97;;;;;;;;;;5053806;28;20533;-68
2022/12/18 09:34:50;;;;;;;62.90;32.90;;;;;;;;;;5055232;28;20029;-68
2022/12/18 09:37:16;;;;;;;64.22;34.95;;;;;;;;;;5055103;28;20092;-68
2022/12/18 09:43:15;;;;;;;70.50;35.80;;;;;;;;;;5054996;28;20028;-68
2022/12/18 09:45:42;;;;;;;64.68;31.67;;;;;;;;;;5055015;28;20112;-69
2022/12/18 09:48:15;;;;;;;61.55;31.10;;;;;;;;;;5054910;28;20021;-68
2022/12/18 09:50:41;;;;;;;56.80;28.45;;;;;;;;;;5054741;28;20538;-67
2022/12/18 09:53:12;;;;;;;75.50;35.33;;;;;;;;;;5055309;28;20025;-67
2022/12/18 09:55:40;;;;;;;50.25;25.33;;;;;;;;;;5054685;28;20025;-67
2022/12/18 09:58:10;;;;;;;36.05;20.77;;;;;;;;;;5053154;28;20013;-68
2022/12/18 10:00:35;;;;;;;38.30;21.05;;;;;;;;;;5053483;28;20171;-68
2022/12/18 10:03:03;;;;;;;56.35;27.10;;;;;;;;;;5053363;28;20157;-67
2022/12/18 10:05:31;;;;;;;57.20;27.88;;;;;;;;;;5054388;28;20546;-68
2022/12/18 10:07:59;;;;;;;83.22;39.50;;;;;;;;;;5053067;28;20032;-68
2022/12/18 10:10:27;;;;;;;45.53;24.52;;;;;;;;;;5054271;28;20056;-68
2022/12/18 10:13:13;;;;;;;52.65;27.38;;;;;;;;;;5054309;28;20045;-68
2022/12/18 10:15:46;;;;;;;56.35;29.33;;;;;;;;;;5053147;28;20053;-68
2022/12/18 10:18:23;;;;;;;55.38;27.48;;;;;;;;;;5054206;28;20025;-68
2022/12/18 10:20:49;;;;;;;60.80;31.15;;;;;;;;;;5054403;28;20491;-68
2022/12/18 10:23:34;;;;;;;59.08;31.00;;;;;;;;;;5054048;28;20033;-68
2022/12/18 10:25:59;;;;;;;61.65;32.92;;;;;;;;;;5053094;28;20040;-68
2022/12/18 10:28:24;;;;;;;49.63;25.98;;;;;;;;;;5054252;28;20260;-68
2022/12/18 10:30:50;;;;;;;41.22;21.67;;;;;;;;;;5053875;28;20029;-68
2022/12/18 10:33:20;;;;;;;43.22;21.65;;;;;;;;;;5052840;28;20044;-68
2022/12/18 10:35:47;;;;;;;39.50;21.48;;;;;;;;;;5052540;28;20033;-68
2022/12/18 10:38:12;;;;;;;42.33;23.92;;;;;;;;;;5054150;28;20033;-68
2022/12/18 10:40:50;;;;;;;40.33;22.45;;;;;;;;;;5051822;28;20033;-68
2022/12/18 10:43:22;;;;;;;59.53;30.00;;;;;;;;;;5054813;28;20059;-68
2022/12/18 10:46:11;;;;;;;39.38;21.17;;;;;;;;;;5054891;28;20104;-67
2022/12/18 10:48:47;;;;;;;39.95;20.77;;;;;;;;;;5042693;28;20048;-67
2022/12/18 10:51:27;;;;;;;42.88;21.33;;;;;;;;;;5054023;28;20079;-67
2022/12/18 10:53:57;;;;;;;38.63;20.05;;;;;;;;;;5052806;28;20025;-67
2022/12/18 10:56:25;;;;;;;41.92;20.95;;;;;;;;;;5054084;28;20029;-67
2022/12/18 10:58:58;;;;;;;37.45;20.35;;;;;;;;;;5053020;28;20013;-68
2022/12/18 11:01:24;;;;;;;40.85;22.27;;;;;;;;;;5053426;28;20036;-68
2022/12/18 11:03:49;;;;;;;43.97;22.63;;;;;;;;;;5053684;28;20027;-68
2022/12/18 11:06:21;;;;;;;42.50;22.67;;;;;;;;;;5053252;28;20459;-67
2022/12/18 11:09:02;;;;;;;44.10;23.45;;;;;;;;;;5052124;28;20037;-67
2022/12/18 11:11:31;;;;;;;46.40;24.60;;;;;;;;;;5052449;28;20033;-67
2022/12/18 11:14:05;;;;;;;45.05;25.10;;;;;;;;;;5052886;28;20108;-67
2022/12/18 11:16:36;;;;;;;49.55;26.30;;;;;;;;;;5053493;28;20056;-68
2022/12/18 11:19:13;;;;;;;53.42;26.38;;;;;;;;;;5053057;28;20080;-68
2022/12/18 11:21:41;;;;;;;80.00;46.05;;;;;;;;;;5052787;28;20024;-68
2022/12/18 11:24:15;;;;;;;56.55;31.92;;;;;;;;;;5052861;28;20481;-67
2022/12/18 11:26:43;;;;;;;46.92;25.98;;;;;;;;;;5051562;28;20115;-68
2022/12/18 11:29:09;;;;;;;48.17;25.05;;;;;;;;;;5050950;28;20017;-68
2022/12/18 11:31:35;;;;;;;48.17;25.33;;;;;;;;;;5052960;28;20032;-68
2022/12/18 11:34:04;;;;;;;43.83;24.98;;;;;;;;;;5053064;28;20013;-68
2022/12/18 11:36:32;;;;;;;47.97;24.95;;;;;;;;;;5052887;28;20052;-68
2022/12/18 11:38:59;;;;;;;61.05;36.83;;;;;;;;;;5051333;28;20017;-68
2022/12/18 11:42:08;;;;;;;52.55;28.08;;;;;;;;;;5052815;28;20058;-68
2022/12/18 11:44:28;;;;;;;49.05;25.05;;;;;;;;;;5051035;28;20041;-68
2022/12/18 11:47:01;;;;;;;39.90;22.40;;;;;;;;;;5052208;28;20040;-68
2022/12/18 11:49:36;;;;;;;45.05;23.60;;;;;;;;;;5049752;28;20028;-67
2022/12/18 11:52:14;;;;;;;40.80;21.88;;;;;;;;;;5050105;28;20064;-68
2022/12/18 11:54:40;;;;;;;44.75;23.25;;;;;;;;;;5050278;28;20060;-67
2022/12/18 11:57:24;;;;;;;39.85;21.35;;;;;;;;;;5051221;28;20059;-68
2022/12/18 11:59:53;;;;;;;44.45;23.05;;;;;;;;;;5050347;28;20021;-67
2022/12/18 12:02:46;;;;;;;43.70;21.25;;;;;;;;;;5050550;28;20021;-67
2022/12/18 12:05:40;;;;;;;50.50;24.58;;;;;;;;;;5053048;28;20036;-67
2022/12/18 12:08:06;;;;;;;45.20;23.77;;;;;;;;;;5051768;28;20075;-67
2022/12/18 12:10:34;;;;;;;45.70;23.45;;;;;;;;;;5052743;28;20534;-67
2022/12/18 12:13:19;;;;;;;38.30;21.70;;;;;;;;;;5053135;28;20025;-67
2022/12/18 12:16:06;;;;;;;42.33;21.05;;;;;;;;;;5053216;28;20334;-67
2022/12/18 12:18:32;;;;;;;46.03;23.77;;;;;;;;;;5053243;28;20437;-67
2022/12/18 12:21:06;;;;;;;44.67;23.88;;;;;;;;;;5035378;28;20033;-67
2022/12/18 12:23:53;;;;;;;45.58;23.70;;;;;;;;;;5052975;28;20040;-67
2022/12/18 12:26:26;;;;;;;39.38;22.27;;;;;;;;;;5053188;28;20056;-67
2022/12/18 12:29:05;;;;;;;42.10;22.85;;;;;;;;;;5052531;28;20040;-68
2022/12/18 12:32:06;;;;;;;41.65;22.45;;;;;;;;;;5052740;28;20048;-67
2022/12/18 12:34:49;;;;;;;38.22;22.25;;;;;;;;;;5030758;28;20029;-67
2022/12/18 12:37:27;;;;;;;36.72;21.17;;;;;;;;;;5050911;28;20031;-67
2022/12/18 12:39:54;;;;;;;39.65;21.75;;;;;;;;;;5052154;28;20055;-67
2022/12/18 12:45:35;;;;;;;36.67;20.88;;;;;;;;;;5051724;28;20108;-67
2022/12/18 12:48:02;;;;;;;37.90;20.42;;;;;;;;;;5052104;28;20033;-70
2022/12/18 12:50:30;;;;;;;35.53;21.38;;;;;;;;;;5051770;28;20024;-70
2022/12/18 12:52:56;;;;;;;34.70;19.83;;;;;;;;;;5051820;28;20032;-70
2022/12/18 12:55:26;;;;;;;34.53;20.00;;;;;;;;;;5052118;28;20021;-70
2022/12/18 12:57:52;;;;;;;;;;;;;;;;;;5050874;28;20036;-70
2022/12/18 13:00:24;;;;;;;38.43;20.33;;;;;;;;;;5034130;28;19909;-70
2022/12/18 13:03:03;;;;;;;35.78;19.33;;;;;;;;;;5051687;28;20037;-70
2022/12/18 13:05:29;;;;;;;330.42;161.02;;;;;;;;;;5051530;28;20025;-70
2022/12/18 13:07:57;;;;;;;133.43;70.78;;;;;;;;;;5051878;28;20024;-70
2022/12/18 13:10:25;;;;;;;78.07;43.67;;;;;;;;;;5050585;28;20060;-70
2022/12/18 13:13:01;;;;;;;39.65;21.70;;;;;;;;;;5051940;28;20032;-70
2022/12/18 13:15:33;;;;;;;49.83;32.10;;;;;;;;;;5051886;28;20478;-70
2022/12/18 13:18:11;;;;;;;41.95;22.60;;;;;;;;;;5051955;28;20075;-70
2022/12/18 13:20:41;;;;;;;36.35;21.63;;;;;;;;;;5051640;28;20049;-70
2022/12/18 13:23:23;;;;;;;38.58;21.92;;;;;;;;;;5051353;28;20567;-70
2022/12/18 13:25:52;;;;;;;37.25;22.17;;;;;;;;;;5051848;28;20032;-70
2022/12/18 13:28:21;;;;;;;37.28;21.73;;;;;;;;;;5051716;28;20488;-70
2022/12/18 13:30:51;;;;;;;34.78;22.55;;;;;;;;;;5050379;28;20040;-70
2022/12/18 13:33:17;;;;;;;37.00;21.38;;;;;;;;;;5051836;28;20550;-70
2022/12/18 13:35:45;;;;;;;40.35;22.83;;;;;;;;;;5055588;28;20021;-61
2022/12/18 13:38:30;;;;;;;37.85;22.42;;;;;;;;;;5054216;28;20029;-74
2022/12/18 13:40:57;;;;;;;40.15;23.33;;;;;;;;;;5056212;28;20116;-74
2022/12/18 13:43:38;;;;;;;41.83;22.92;;;;;;;;;;5053760;28;20453;-75
2022/12/18 13:46:16;;;;;;;45.03;25.70;;;;;;;;;;5055941;28;20112;-75
2022/12/18 13:48:48;;;;;;;49.88;28.67;;;;;;;;;;5054151;28;20036;-75
2022/12/18 13:51:17;;;;;;;82.75;56.17;;;;;;;;;;5055131;28;20073;-74
2022/12/18 13:53:44;;;;;;;82.10;55.15;;;;;;;;;;5055445;28;20520;-74
2022/12/18 13:56:15;;;;;;;79.43;50.55;;;;;;;;;;5055984;28;20025;-75
2022/12/18 13:58:43;;;;;;;85.72;51.08;;;;;;;;;;5055791;28;20032;-74
2022/12/18 14:01:24;;;;;;;66.28;39.97;;;;;;;;;;5054505;28;20023;-74
2022/12/18 14:04:08;;;;;;;52.30;31.20;;;;;;;;;;5055701;28;20036;-75
2022/12/18 14:06:34;;;;;;;70.35;38.42;;;;;;;;;;5055626;28;20036;-75
2022/12/18 14:08:59;;;;;;;205.27;144.00;;;;;;;;;;5055891;28;20025;-75
2022/12/18 14:11:25;;;;;;;141.82;101.78;;;;;;;;;;5055552;28;20063;-75
2022/12/18 14:13:51;;;;;;;179.23;103.63;;;;;;;;;;5054662;28;20024;-75
2022/12/18 14:16:19;;;;;;;77.35;50.75;;;;;;;;;;5054531;28;20112;-74
2022/12/18 14:18:46;;;;;;;74.25;45.28;;;;;;;;;;5054299;28;20120;-74
2022/12/18 14:21:17;;;;;;;88.95;49.75;;;;;;;;;;5054496;28;20476;-73
2022/12/18 14:23:42;;;;;;;;;;;;;;;;;;5053718;28;20427;-74
2022/12/18 14:26:21;;;;;;;87.13;43.57;;;;;;;;;;5053895;28;19905;-75
2022/12/18 14:28:48;;;;;;;77.18;39.85;;;;;;;;;;5054237;28;20361;-74
2022/12/18 14:31:20;;;;;;;63.20;34.83;;;;;;;;;;5052484;28;20468;-74
2022/12/18 14:33:47;;;;;;;105.20;52.95;;;;;;;;;;5047248;28;20033;-74
2022/12/18 14:36:15;;;;;;;173.65;74.88;;;;;;;;;;5052799;28;20021;-74
2022/12/18 14:38:41;;;;;;;142.50;60.60;;;;;;;;;;5053903;28;20021;-74
2022/12/18 14:41:11;;;;;;;438.27;164.25;;;;;;;;;;5053192;28;20024;-74
2022/12/18 14:43:37;;;;;;;;;;;;;;;;;;5055299;28;20037;-72
2022/12/18 14:46:04;;;;;;;724.10;315.50;;;;;;;;;;5053753;28;19936;-73